createdAt,value
2023-03-21T00:00:55.472Z,9.68
2023-03-21T00:03:24.463Z,9.65
2023-03-21T00:05:53.854Z,9.68
2023-03-21T00:08:24.378Z,9.70
2023-03-21T00:10:59.968Z,9.69
2023-03-21T00:13:32.646Z,9.64
2023-03-21T00:16:22.669Z,9.63
2023-03-21T00:18:57.376Z,9.64
2023-03-21T00:24:16.715Z,9.55
2023-03-21T00:26:45.022Z,9.49
2023-03-21T00:29:12.972Z,9.47
2023-03-21T00:31:40.855Z,9.44
2023-03-21T00:34:09.350Z,9.42
2023-03-21T00:36:38.005Z,9.38
2023-03-21T00:39:08.667Z,9.38
2023-03-21T00:41:42.780Z,9.39
2023-03-21T00:44:15.690Z,9.32
2023-03-21T00:46:54.550Z,9.27
2023-03-21T00:49:33.867Z,9.23
2023-03-21T00:52:38.075Z,9.20
2023-03-21T00:54:54.696Z,9.08
2023-03-21T00:57:37.541Z,9.05
2023-03-21T01:00:12.545Z,9.05
2023-03-21T01:03:14.175Z,9.03
2023-03-21T01:06:07.544Z,9.01
2023-03-21T01:08:58.609Z,9.00
2023-03-21T01:11:28.720Z,8.91
2023-03-21T01:14:10.855Z,8.85
2023-03-21T01:16:43.547Z,8.83
2023-03-21T01:19:25.007Z,8.84
2023-03-21T01:21:55.976Z,8.80
2023-03-21T01:24:23.984Z,8.81
2023-03-21T01:26:51.798Z,8.71
2023-03-21T01:29:20.206Z,8.73
2023-03-21T01:31:48.348Z,8.73
2023-03-21T01:34:16.539Z,8.76
2023-03-21T01:36:45.078Z,8.76
2023-03-21T01:39:17.191Z,8.78
2023-03-21T01:41:45.570Z,8.76
2023-03-21T01:44:25.740Z,8.75
2023-03-21T01:47:12.239Z,8.74
2023-03-21T01:49:51.230Z,8.79
2023-03-21T01:52:38.734Z,8.75
2023-03-21T01:55:13.893Z,8.78
2023-03-21T01:58:07.464Z,8.78
2023-03-21T02:00:51.950Z,8.76
2023-03-21T02:03:35.330Z,8.70
2023-03-21T02:06:49.038Z,8.65
2023-03-21T02:09:51.040Z,8.65
2023-03-21T02:12:21.902Z,8.68
2023-03-21T02:14:52.544Z,8.65
2023-03-21T02:17:36.282Z,8.67
2023-03-21T02:20:29.802Z,8.66
2023-03-21T02:23:10.802Z,8.68
2023-03-21T02:26:41.236Z,8.66
2023-03-21T02:29:39.205Z,8.69
2023-03-21T02:32:46.806Z,8.65
2023-03-21T02:36:14.030Z,8.63
2023-03-21T02:39:12.215Z,8.60
2023-03-21T02:42:02.474Z,8.54
2023-03-21T02:44:43.311Z,8.51
2023-03-21T02:47:27.477Z,8.52
2023-03-21T02:50:02.312Z,8.51
2023-03-21T02:52:39.150Z,8.51
2023-03-21T02:55:15.481Z,8.52
2023-03-21T02:58:06.844Z,8.46
2023-03-21T03:00:43.516Z,8.44
2023-03-21T03:03:24.841Z,8.41
2023-03-21T03:06:01.437Z,8.38
2023-03-21T03:08:45.282Z,8.39
2023-03-21T03:11:41.187Z,8.41
2023-03-21T03:15:00.153Z,8.41
2023-03-21T03:18:05.145Z,8.40
2023-03-21T03:21:07.284Z,8.42
2023-03-21T03:23:35.103Z,8.42
2023-03-21T03:26:09.360Z,8.42
2023-03-21T03:28:42.709Z,8.42
2023-03-21T03:31:22.110Z,8.48
2023-03-21T03:33:58.536Z,8.57
2023-03-21T03:36:34.314Z,8.66
2023-03-21T03:39:11.919Z,8.75
2023-03-21T03:42:21.897Z,8.83
2023-03-21T03:44:58.521Z,8.87
2023-03-21T03:47:57.138Z,8.86
2023-03-21T03:50:33.804Z,8.81
2023-03-21T03:53:18.388Z,8.79
2023-03-21T03:55:51.236Z,8.70
2023-03-21T03:58:24.867Z,8.68
2023-03-21T04:00:57.484Z,8.66
2023-03-21T04:03:25.707Z,8.67
2023-03-21T04:05:54.160Z,8.66
2023-03-21T04:08:23.419Z,8.70
2023-03-21T04:10:53.460Z,8.76
2023-03-21T04:13:22.081Z,8.81
2023-03-21T04:16:01.060Z,8.80
2023-03-21T04:18:28.957Z,8.73
2023-03-21T04:20:57.372Z,8.71
2023-03-21T04:23:26.504Z,8.67
2023-03-21T04:25:57.107Z,8.57
2023-03-21T04:28:37.677Z,8.44
2023-03-21T04:31:25.448Z,8.38
2023-03-21T04:33:59.632Z,8.35
2023-03-21T04:36:33.394Z,8.32
2023-03-21T04:39:01.910Z,8.38
2023-03-21T04:41:31.217Z,8.39
2023-03-21T04:43:59.260Z,8.42
2023-03-21T04:46:27.249Z,8.51
2023-03-21T04:48:55.522Z,8.56
2023-03-21T04:51:23.338Z,8.57
2023-03-21T04:53:52.626Z,8.63
2023-03-21T04:56:21.012Z,8.72
2023-03-21T04:58:48.851Z,8.78
2023-03-21T05:01:20.862Z,8.77
2023-03-21T05:03:49.041Z,8.77
2023-03-21T05:06:16.970Z,8.80
2023-03-21T05:08:44.903Z,8.76
2023-03-21T05:11:12.898Z,8.78
2023-03-21T05:13:41.637Z,8.77
2023-03-21T05:16:10.082Z,8.76
2023-03-21T05:18:38.939Z,8.74
2023-03-21T05:21:18.323Z,8.64
2023-03-21T05:23:54.232Z,8.57
2023-03-21T05:26:23.218Z,8.55
2023-03-21T05:29:07.005Z,8.55
2023-03-21T05:31:35.261Z,8.53
2023-03-21T05:34:07.618Z,8.57
2023-03-21T05:36:36.274Z,8.65
2023-03-21T05:39:06.181Z,8.69
2023-03-21T05:41:35.964Z,8.73
2023-03-21T05:44:05.629Z,8.73
2023-03-21T05:46:33.822Z,8.78
2023-03-21T05:49:01.964Z,8.81
2023-03-21T05:51:29.986Z,8.86
2023-03-21T05:53:57.844Z,8.88
2023-03-21T05:56:26.875Z,8.86
2023-03-21T05:58:58.637Z,8.90
2023-03-21T06:01:26.783Z,8.88
2023-03-21T06:03:59.533Z,8.87
2023-03-21T06:06:29.809Z,8.87
2023-03-21T06:09:00.981Z,8.94
2023-03-21T06:11:32.718Z,8.99
2023-03-21T06:14:19.589Z,9.03
2023-03-21T06:16:54.139Z,9.09
2023-03-21T06:19:22.482Z,9.11
2023-03-21T06:22:00.261Z,9.13
2023-03-21T06:24:28.568Z,9.14
2023-03-21T06:26:56.756Z,9.15
2023-03-21T06:29:25.778Z,9.12
2023-03-21T06:31:53.752Z,9.09
2023-03-21T06:34:22.077Z,9.10
2023-03-21T06:36:52.224Z,9.12
2023-03-21T06:39:21.706Z,9.19
2023-03-21T06:41:49.875Z,9.27
2023-03-21T06:44:17.953Z,9.31
2023-03-21T06:46:52.649Z,9.38
2023-03-21T06:49:20.910Z,9.45
2023-03-21T06:51:49.202Z,9.51
2023-03-21T06:54:20.333Z,9.52
2023-03-21T06:57:03.270Z,9.46
2023-03-21T06:59:34.229Z,9.50
2023-03-21T07:02:05.240Z,9.58
2023-03-21T07:04:36.995Z,9.63
2023-03-21T07:07:06.482Z,9.65
2023-03-21T07:09:34.377Z,9.68
2023-03-21T07:12:05.343Z,9.73
2023-03-21T07:14:47.520Z,9.80
2023-03-21T07:17:15.436Z,9.83
2023-03-21T07:19:44.802Z,9.83
2023-03-21T07:22:13.444Z,9.80
2023-03-21T07:24:41.210Z,9.76
2023-03-21T07:27:09.399Z,9.72
2023-03-21T07:29:37.258Z,9.65
2023-03-21T07:32:05.206Z,9.71
2023-03-21T07:34:33.977Z,9.66
2023-03-21T07:37:05.696Z,9.71
2023-03-21T07:39:35.156Z,9.72
2023-03-21T07:42:03.689Z,9.67
2023-03-21T07:44:39.203Z,9.78
2023-03-21T07:47:07.406Z,9.77
2023-03-21T07:49:35.969Z,9.76
2023-03-21T07:52:05.097Z,9.87
2023-03-21T07:54:33.370Z,9.91
2023-03-21T07:57:01.418Z,10.01
2023-03-21T07:59:29.189Z,10.06
2023-03-21T08:01:57.083Z,10.15
2023-03-21T08:04:26.087Z,10.24
2023-03-21T08:06:54.149Z,10.32
2023-03-21T08:09:22.132Z,10.30
2023-03-21T08:11:49.954Z,10.25
2023-03-21T08:14:17.846Z,10.17
2023-03-21T08:16:45.993Z,10.20
2023-03-21T08:19:13.924Z,10.20
2023-03-21T08:21:41.773Z,10.24
2023-03-21T08:24:09.551Z,10.22
2023-03-21T08:26:38.312Z,10.23
2023-03-21T08:29:06.894Z,10.24
2023-03-21T08:31:34.807Z,10.23
2023-03-21T08:34:02.762Z,10.20
2023-03-21T08:36:31.658Z,10.14
2023-03-21T08:39:05.514Z,10.11
2023-03-21T08:41:34.939Z,10.07
2023-03-21T08:44:04.260Z,10.08
2023-03-21T08:46:32.953Z,10.11
2023-03-21T08:49:01.624Z,10.13
2023-03-21T08:51:29.456Z,10.04
2023-03-21T08:53:57.469Z,9.94
2023-03-21T08:56:25.360Z,9.87
2023-03-21T08:58:53.213Z,9.89
2023-03-21T09:01:21.365Z,9.83
2023-03-21T09:03:49.331Z,9.85
2023-03-21T09:06:17.496Z,9.87
2023-03-21T09:08:46.363Z,9.92
2023-03-21T09:11:14.435Z,9.96
2023-03-21T09:13:42.242Z,10.09
2023-03-21T09:16:10.587Z,10.26
2023-03-21T09:18:49.525Z,10.36
2023-03-21T09:21:20.163Z,10.52
2023-03-21T09:23:50.698Z,10.65
2023-03-21T09:26:19.788Z,10.79
2023-03-21T09:28:48.205Z,10.87
2023-03-21T09:31:22.878Z,10.95
2023-03-21T09:33:52.562Z,11.11
2023-03-21T09:36:22.079Z,11.11
2023-03-21T09:38:50.086Z,11.10
2023-03-21T09:41:57.882Z,11.12
2023-03-21T09:44:39.522Z,11.31
2023-03-21T09:47:21.733Z,11.42
2023-03-21T09:50:01.723Z,11.55
2023-03-21T09:52:48.266Z,11.72
2023-03-21T09:55:21.462Z,11.78
2023-03-21T09:58:03.054Z,11.80
2023-03-21T10:00:37.489Z,11.87
2023-03-21T10:03:29.510Z,11.98
2023-03-21T10:06:01.280Z,12.02
2023-03-21T10:08:41.262Z,11.99
2023-03-21T10:11:21.628Z,11.95
2023-03-21T10:13:56.551Z,12.03
2023-03-21T10:16:34.826Z,12.18
2023-03-21T10:19:13.175Z,12.19
2023-03-21T10:22:03.359Z,12.36
2023-03-21T10:24:34.052Z,12.57
2023-03-21T10:27:03.850Z,12.69
2023-03-21T10:29:43.422Z,12.81
2023-03-21T10:32:15.372Z,12.76
2023-03-21T10:34:48.155Z,12.73
2023-03-21T10:37:16.967Z,12.63
2023-03-21T10:39:51.789Z,12.71
2023-03-21T10:42:29.404Z,12.76
2023-03-21T10:44:58.468Z,12.86
2023-03-21T10:47:30.137Z,13.11
2023-03-21T10:50:08.976Z,13.26
2023-03-21T10:52:47.620Z,13.36
2023-03-21T10:55:24.603Z,13.42
2023-03-21T10:58:00.226Z,13.51
2023-03-21T11:00:34.674Z,13.80
2023-03-21T11:03:03.745Z,13.71
2023-03-21T11:05:40.803Z,13.57
2023-03-21T11:08:19.694Z,13.57
2023-03-21T11:11:03.307Z,13.53
2023-03-21T11:13:40.929Z,13.62
2023-03-21T11:16:09.300Z,13.83
2023-03-21T11:18:49.521Z,14.02
2023-03-21T11:21:17.943Z,14.04
2023-03-21T11:23:49.763Z,13.92
2023-03-21T11:26:26.399Z,13.97
2023-03-21T11:28:55.358Z,14.03
2023-03-21T11:31:37.561Z,13.89
2023-03-21T11:34:09.780Z,13.94
2023-03-21T11:36:41.695Z,13.91
2023-03-21T11:39:31.376Z,14.11
2023-03-21T11:41:59.743Z,14.44
2023-03-21T11:44:44.278Z,14.70
2023-03-21T11:47:12.131Z,14.66
2023-03-21T11:49:39.933Z,14.67
2023-03-21T11:52:53.990Z,14.66
2023-03-21T11:55:24.773Z,14.52
2023-03-21T11:58:14.333Z,14.47
2023-03-21T12:00:54.900Z,14.52
2023-03-21T12:03:49.081Z,14.51
2023-03-21T12:06:36.231Z,14.42
2023-03-21T12:09:23.008Z,14.35
2023-03-21T12:12:00.495Z,14.30
2023-03-21T12:15:03.962Z,14.22
2023-03-21T12:17:50.302Z,14.27
2023-03-21T12:20:57.331Z,14.48
2023-03-21T12:23:35.836Z,14.51
2023-03-21T12:26:03.692Z,14.60
2023-03-21T12:28:39.423Z,14.74
2023-03-21T12:31:21.231Z,14.91
2023-03-21T12:34:17.401Z,14.95
2023-03-21T12:37:07.405Z,14.92
2023-03-21T12:39:37.571Z,14.89
2023-03-21T12:42:20.934Z,15.07
2023-03-21T12:45:00.647Z,15.11
2023-03-21T12:47:32.989Z,15.10
2023-03-21T12:50:15.037Z,15.02
2023-03-21T12:52:47.817Z,14.95
2023-03-21T12:55:22.793Z,14.87
2023-03-21T12:58:09.296Z,14.81
2023-03-21T13:00:47.413Z,14.82
2023-03-21T13:03:40.491Z,14.88
2023-03-21T13:06:13.105Z,14.98
2023-03-21T13:08:44.011Z,15.07
2023-03-21T13:11:16.760Z,15.15
2023-03-21T13:13:47.741Z,15.13
2023-03-21T13:16:23.341Z,15.01
2023-03-21T13:19:22.141Z,14.77
2023-03-21T13:22:20.067Z,14.44
2023-03-21T13:24:56.587Z,14.26
2023-03-21T13:27:24.792Z,14.13
2023-03-21T13:30:06.611Z,13.97
2023-03-21T13:32:43.143Z,13.86
2023-03-21T13:35:33.153Z,13.75
2023-03-21T13:38:17.356Z,13.71
2023-03-21T13:40:47.946Z,13.70
2023-03-21T13:43:40.970Z,13.67
2023-03-21T13:46:27.268Z,13.67
2023-03-21T13:48:59.771Z,13.59
2023-03-21T13:51:28.204Z,13.57
2023-03-21T13:54:08.019Z,13.57
2023-03-21T13:56:59.971Z,13.58
2023-03-21T13:59:34.906Z,13.57
2023-03-21T14:02:11.845Z,13.60
2023-03-21T14:04:53.926Z,13.60
2023-03-21T14:07:40.469Z,13.61
2023-03-21T14:10:33.456Z,13.68
2023-03-21T14:13:02.912Z,13.82
2023-03-21T14:15:57.229Z,13.90
2023-03-21T14:18:51.856Z,13.92
2023-03-21T14:21:24.801Z,13.83
2023-03-21T14:24:02.586Z,13.88
2023-03-21T14:26:34.261Z,13.86
2023-03-21T14:29:07.288Z,13.87
2023-03-21T14:31:39.658Z,13.90
2023-03-21T14:34:10.481Z,13.86
2023-03-21T14:36:43.173Z,13.85
2023-03-21T14:39:18.094Z,13.90
2023-03-21T14:41:49.871Z,13.98
2023-03-21T14:44:28.564Z,14.04
2023-03-21T14:47:05.005Z,14.06
2023-03-21T14:49:38.028Z,14.01
2023-03-21T14:52:11.421Z,14.00
2023-03-21T14:54:45.749Z,13.93
2023-03-21T14:57:18.914Z,13.85
2023-03-21T14:59:51.471Z,13.78
2023-03-21T15:02:24.211Z,13.73
2023-03-21T15:04:56.651Z,13.66
2023-03-21T15:07:32.684Z,13.59
2023-03-21T15:10:04.017Z,13.52
2023-03-21T15:12:32.555Z,13.47
2023-03-21T15:15:01.857Z,13.48
2023-03-21T15:17:30.684Z,13.45
2023-03-21T15:19:58.542Z,13.39
2023-03-21T15:22:33.364Z,13.34
2023-03-21T15:25:06.866Z,13.29
2023-03-21T15:27:40.491Z,13.30
2023-03-21T15:30:20.851Z,13.25
2023-03-21T15:32:49.180Z,13.11
2023-03-21T15:35:22.533Z,13.10
2023-03-21T15:37:56.735Z,13.05
2023-03-21T15:40:31.033Z,13.00
2023-03-21T15:43:20.005Z,12.91
2023-03-21T15:45:56.234Z,12.78
2023-03-21T15:48:29.065Z,12.67
2023-03-21T15:51:06.694Z,12.60
2023-03-21T15:53:37.377Z,12.53
2023-03-21T15:56:06.370Z,12.53
2023-03-21T15:58:41.999Z,12.56
2023-03-21T16:01:20.145Z,12.58
2023-03-21T16:03:56.290Z,12.54
2023-03-21T16:06:30.496Z,12.50
2023-03-21T16:09:14.353Z,12.45
2023-03-21T16:11:50.650Z,12.38
2023-03-21T16:14:20.196Z,12.37
2023-03-21T16:16:49.286Z,12.32
2023-03-21T16:19:17.785Z,12.28
2023-03-21T16:21:46.961Z,12.25
2023-03-21T16:24:14.856Z,12.24
2023-03-21T16:26:46.138Z,12.24
2023-03-21T16:29:15.805Z,12.23
2023-03-21T16:31:44.493Z,12.21
2023-03-21T16:34:12.740Z,12.20
2023-03-21T16:36:43.428Z,12.18
2023-03-21T16:39:22.509Z,12.08
2023-03-21T16:41:51.519Z,12.03
2023-03-21T16:44:20.028Z,11.99
2023-03-21T16:46:48.224Z,11.90
2023-03-21T16:49:27.809Z,11.84
2023-03-21T16:51:57.424Z,11.82
2023-03-21T16:54:25.809Z,11.86
2023-03-21T16:56:55.791Z,11.85
2023-03-21T16:59:23.824Z,11.93
2023-03-21T17:01:51.780Z,11.97
2023-03-21T17:04:19.713Z,11.96
2023-03-21T17:06:50.376Z,11.93
2023-03-21T17:09:21.691Z,11.88
2023-03-21T17:11:50.358Z,11.84
2023-03-21T17:14:18.877Z,11.79
2023-03-21T17:16:47.509Z,11.75
2023-03-21T17:19:18.790Z,11.69
2023-03-21T17:21:47.116Z,11.62
2023-03-21T17:24:15.721Z,11.59
2023-03-21T17:26:43.650Z,11.55
2023-03-21T17:29:15.589Z,11.53
2023-03-21T17:31:47.366Z,11.56
2023-03-21T17:34:16.093Z,11.62
2023-03-21T17:36:46.815Z,11.60
2023-03-21T17:39:19.728Z,11.60
2023-03-21T17:41:47.568Z,11.57
2023-03-21T17:44:16.057Z,11.55
2023-03-21T17:46:44.094Z,11.54
2023-03-21T17:49:16.514Z,11.46
2023-03-21T17:51:46.867Z,11.44
2023-03-21T17:54:14.848Z,11.48
2023-03-21T17:56:42.853Z,11.50
2023-03-21T17:59:13.743Z,11.49
2023-03-21T18:01:42.969Z,11.40
2023-03-21T18:04:11.148Z,11.33
2023-03-21T18:06:39.862Z,11.27
2023-03-21T18:09:11.934Z,11.23
2023-03-21T18:11:41.282Z,11.24
2023-03-21T18:14:16.258Z,11.25
2023-03-21T18:16:47.156Z,11.20
2023-03-21T18:19:15.380Z,11.14
2023-03-21T18:21:45.758Z,11.16
2023-03-21T18:24:14.783Z,11.15
2023-03-21T18:26:43.849Z,11.11
2023-03-21T18:32:08.029Z,11.00
2023-03-21T18:34:38.938Z,10.94
2023-03-21T18:37:08.655Z,10.91
2023-03-21T18:39:38.119Z,10.91
2023-03-21T18:42:06.984Z,10.88
2023-03-21T18:44:46.898Z,10.84
2023-03-21T18:47:15.249Z,10.81
2023-03-21T18:52:32.077Z,10.85
2023-03-21T18:54:59.846Z,10.90
2023-03-21T18:57:36.381Z,10.94
2023-03-21T19:00:13.343Z,10.96
2023-03-21T19:02:46.929Z,10.97
2023-03-21T19:05:18.044Z,11.01
2023-03-21T19:07:48.018Z,11.03
2023-03-21T19:10:19.882Z,11.05
2023-03-21T19:12:50.601Z,11.10
2023-03-21T19:15:21.800Z,11.08
2023-03-21T19:18:37.200Z,11.06
2023-03-21T19:20:44.186Z,11.04
2023-03-21T19:23:12.232Z,11.02
2023-03-21T19:25:40.441Z,11.00
2023-03-21T19:28:08.525Z,10.98
2023-03-21T19:30:37.089Z,10.93
2023-03-21T19:33:06.458Z,10.90
2023-03-21T19:35:37.297Z,10.88
2023-03-21T19:38:05.603Z,10.87
2023-03-21T19:40:34.043Z,10.81
2023-03-21T19:43:21.476Z,10.78
2023-03-21T19:45:49.963Z,10.74
2023-03-21T19:48:18.599Z,10.69
2023-03-21T19:51:13.867Z,10.64
2023-03-21T19:53:34.532Z,10.57
2023-03-21T19:56:04.913Z,10.53
2023-03-21T19:58:38.869Z,10.50
2023-03-21T20:01:06.710Z,10.45
2023-03-21T20:03:34.996Z,10.45
2023-03-21T20:06:06.270Z,10.45
2023-03-21T20:08:57.981Z,10.43
2023-03-21T20:11:23.416Z,10.40
2023-03-21T20:13:51.325Z,10.38
2023-03-21T20:16:20.395Z,10.32
2023-03-21T20:18:48.615Z,10.27
2023-03-21T20:21:18.428Z,10.21
2023-03-21T20:23:51.880Z,10.22
2023-03-21T20:26:20.468Z,10.22
2023-03-21T20:29:01.196Z,10.21
2023-03-21T20:31:36.012Z,10.21
2023-03-21T20:34:03.939Z,10.21
2023-03-21T20:36:40.117Z,10.21
2023-03-21T20:39:08.654Z,10.23
2023-03-21T20:41:37.317Z,10.25
2023-03-21T20:46:53.259Z,10.33
2023-03-21T20:49:23.055Z,10.35
2023-03-21T20:54:39.588Z,10.30
2023-03-21T20:57:07.731Z,10.31
2023-03-21T20:59:35.674Z,10.32
2023-03-21T21:02:03.822Z,10.35
2023-03-21T21:04:49.831Z,10.31
2023-03-21T21:07:22.217Z,10.30
2023-03-21T21:09:50.292Z,10.31
2023-03-21T21:12:19.545Z,10.31
2023-03-21T21:14:48.362Z,10.33
2023-03-21T21:20:17.952Z,10.35
2023-03-21T21:23:00.107Z,10.38
2023-03-21T21:25:32.554Z,10.36
2023-03-21T21:28:03.926Z,10.37
2023-03-21T21:30:32.695Z,10.39
2023-03-21T21:33:00.983Z,10.41
2023-03-21T21:35:29.355Z,10.36
2023-03-21T21:37:57.278Z,10.30
2023-03-21T21:40:25.789Z,10.26
2023-03-21T21:42:54.415Z,10.27
2023-03-21T21:45:22.422Z,10.27
2023-03-21T21:47:51.149Z,10.27
2023-03-21T21:50:22.044Z,10.29
2023-03-21T21:52:52.864Z,10.29
2023-03-21T21:55:21.709Z,10.31
2023-03-21T21:57:50.795Z,10.30
2023-03-21T22:00:20.049Z,10.27
2023-03-21T22:02:48.129Z,10.27
2023-03-21T22:05:19.066Z,10.28
2023-03-21T22:07:48.139Z,10.31
2023-03-21T22:10:16.392Z,10.28
2023-03-21T22:12:44.317Z,10.26
2023-03-21T22:15:12.501Z,10.23
2023-03-21T22:17:41.212Z,10.22
2023-03-21T22:20:09.978Z,10.25
2023-03-21T22:22:38.294Z,10.27
2023-03-21T22:25:08.995Z,10.28
2023-03-21T22:27:37.226Z,10.29
2023-03-21T22:30:08.038Z,10.25
2023-03-21T22:32:38.243Z,10.24
2023-03-21T22:35:08.826Z,10.20
2023-03-21T22:37:40.346Z,10.14
2023-03-21T22:40:11.289Z,10.13
2023-03-21T22:42:40.329Z,10.12
2023-03-21T22:45:10.890Z,10.13
2023-03-21T22:47:39.195Z,10.16
2023-03-21T22:50:07.636Z,10.16
2023-03-21T22:52:35.739Z,10.24
2023-03-21T22:55:03.751Z,10.22
2023-03-21T22:57:31.553Z,10.17
2023-03-21T22:59:59.423Z,10.12
2023-03-21T23:02:27.635Z,10.06
2023-03-21T23:04:55.966Z,10.04
2023-03-21T23:07:23.849Z,10.03
2023-03-21T23:09:51.878Z,10.02
2023-03-21T23:12:19.803Z,10.00
2023-03-21T23:14:47.663Z,10.00
2023-03-21T23:17:16.455Z,9.99
2023-03-21T23:19:44.455Z,10.00
2023-03-21T23:22:12.230Z,10.05
2023-03-21T23:24:40.111Z,10.08
2023-03-21T23:27:07.901Z,10.13
2023-03-21T23:29:35.718Z,10.14
2023-03-21T23:32:03.681Z,10.14
2023-03-21T23:34:31.664Z,10.18
2023-03-21T23:36:59.522Z,10.18
2023-03-21T23:39:28.404Z,10.12
2023-03-21T23:41:58.215Z,10.15
2023-03-21T23:44:26.475Z,10.19
2023-03-21T23:46:55.258Z,10.24
2023-03-21T23:49:23.114Z,10.31
2023-03-21T23:51:51.043Z,10.35
2023-03-21T23:54:18.965Z,10.38
2023-03-21T23:56:46.758Z,10.37
2023-03-21T23:59:14.629Z,10.38
